sensor_id;sensor_type;location;lat;lon;timestamp;temperature;humidity
51783;DHT22;37845;53.196;5.638;2022-07-23T00:01:21;14.60;99.90
51783;DHT22;37845;53.196;5.638;2022-07-23T00:03:47;14.60;99.90
51783;DHT22;37845;53.196;5.638;2022-07-23T00:06:13;14.60;99.90
51783;DHT22;37845;53.196;5.638;2022-07-23T00:08:39;14.60;99.90
51783;DHT22;37845;53.196;5.638;2022-07-23T00:11:04;14.60;99.90
51783;DHT22;37845;53.196;5.638;2022-07-23T00:13:30;14.60;99.90
51783;DHT22;37845;53.196;5.638;2022-07-23T00:15:55;14.70;99.90
51783;DHT22;37845;53.196;5.638;2022-07-23T00:18:21;14.60;99.90
51783;DHT22;37845;53.196;5.638;2022-07-23T00:20:47;14.60;99.90
51783;DHT22;37845;53.196;5.638;2022-07-23T00:23:13;14.70;99.90
51783;DHT22;37845;53.196;5.638;2022-07-23T00:25:38;14.70;99.90
51783;DHT22;37845;53.196;5.638;2022-07-23T00:28:04;14.60;99.90
51783;DHT22;37845;53.196;5.638;2022-07-23T00:30:30;14.60;99.90
51783;DHT22;37845;53.196;5.638;2022-07-23T00:32:57;14.60;99.90
51783;DHT22;37845;53.196;5.638;2022-07-23T00:35:24;14.60;99.90
51783;DHT22;37845;53.196;5.638;2022-07-23T00:37:50;14.60;99.90
51783;DHT22;37845;53.196;5.638;2022-07-23T00:40:16;14.50;99.90
51783;DHT22;37845;53.196;5.638;2022-07-23T00:42:41;14.50;99.90
51783;DHT22;37845;53.196;5.638;2022-07-23T00:45:08;14.50;99.90
51783;DHT22;37845;53.196;5.638;2022-07-23T00:47:33;14.40;99.90
51783;DHT22;37845;53.196;5.638;2022-07-23T00:50:04;14.30;99.90
51783;DHT22;37845;53.196;5.638;2022-07-23T00:52:31;14.30;99.90
51783;DHT22;37845;53.196;5.638;2022-07-23T00:54:57;14.30;99.90
51783;DHT22;37845;53.196;5.638;2022-07-23T00:57:23;14.30;99.90
51783;DHT22;37845;53.196;5.638;2022-07-23T00:59:48;14.30;99.90
51783;DHT22;37845;53.196;5.638;2022-07-23T01:02:14;14.30;99.90
51783;DHT22;37845;53.196;5.638;2022-07-23T01:04:39;14.30;99.90
51783;DHT22;37845;53.196;5.638;2022-07-23T01:07:05;14.40;99.90
51783;DHT22;37845;53.196;5.638;2022-07-23T01:09:31;14.50;99.90
51783;DHT22;37845;53.196;5.638;2022-07-23T01:11:57;14.50;99.90
51783;DHT22;37845;53.196;5.638;2022-07-23T01:14:23;14.50;99.90
51783;DHT22;37845;53.196;5.638;2022-07-23T01:16:59;14.50;99.90
51783;DHT22;37845;53.196;5.638;2022-07-23T01:19:35;14.50;99.90
51783;DHT22;37845;53.196;5.638;2022-07-23T01:22:01;14.50;99.90
51783;DHT22;37845;53.196;5.638;2022-07-23T01:24:27;14.50;99.90
51783;DHT22;37845;53.196;5.638;2022-07-23T01:26:53;14.60;99.90
51783;DHT22;37845;53.196;5.638;2022-07-23T01:29:18;14.40;99.90
51783;DHT22;37845;53.196;5.638;2022-07-23T01:31:46;14.60;99.90
51783;DHT22;37845;53.196;5.638;2022-07-23T01:34:12;14.60;99.90
51783;DHT22;37845;53.196;5.638;2022-07-23T01:36:38;14.70;99.90
51783;DHT22;37845;53.196;5.638;2022-07-23T01:39:04;14.60;99.90
51783;DHT22;37845;53.196;5.638;2022-07-23T01:41:30;14.60;99.90
51783;DHT22;37845;53.196;5.638;2022-07-23T01:43:56;14.60;99.90
51783;DHT22;37845;53.196;5.638;2022-07-23T01:46:21;14.60;99.90
51783;DHT22;37845;53.196;5.638;2022-07-23T01:48:48;14.50;99.90
51783;DHT22;37845;53.196;5.638;2022-07-23T01:51:13;14.50;99.90
51783;DHT22;37845;53.196;5.638;2022-07-23T01:53:39;14.40;99.90
51783;DHT22;37845;53.196;5.638;2022-07-23T01:56:05;14.50;99.90
51783;DHT22;37845;53.196;5.638;2022-07-23T01:58:31;14.40;99.90
51783;DHT22;37845;53.196;5.638;2022-07-23T02:00:57;14.40;99.90
51783;DHT22;37845;53.196;5.638;2022-07-23T02:03:22;14.30;99.90
51783;DHT22;37845;53.196;5.638;2022-07-23T02:05:50;14.30;99.90
51783;DHT22;37845;53.196;5.638;2022-07-23T02:08:15;14.30;99.90
51783;DHT22;37845;53.196;5.638;2022-07-23T02:10:41;14.30;99.90
51783;DHT22;37845;53.196;5.638;2022-07-23T02:13:07;14.30;99.90
51783;DHT22;37845;53.196;5.638;2022-07-23T02:15:32;14.30;99.90
51783;DHT22;37845;53.196;5.638;2022-07-23T02:17:58;14.20;99.90
51783;DHT22;37845;53.196;5.638;2022-07-23T02:20:24;14.10;99.90
51783;DHT22;37845;53.196;5.638;2022-07-23T02:22:49;14.10;99.90
51783;DHT22;37845;53.196;5.638;2022-07-23T02:25:15;14.00;99.90
51783;DHT22;37845;53.196;5.638;2022-07-23T02:27:41;13.90;99.90
51783;DHT22;37845;53.196;5.638;2022-07-23T02:30:07;13.90;99.90
51783;DHT22;37845;53.196;5.638;2022-07-23T02:32:32;13.90;99.90
51783;DHT22;37845;53.196;5.638;2022-07-23T02:34:58;13.90;99.90
51783;DHT22;37845;53.196;5.638;2022-07-23T02:37:23;13.80;99.90
51783;DHT22;37845;53.196;5.638;2022-07-23T02:39:49;13.80;99.90
51783;DHT22;37845;53.196;5.638;2022-07-23T02:42:15;14.20;99.90
51783;DHT22;37845;53.196;5.638;2022-07-23T02:44:41;13.70;99.90
51783;DHT22;37845;53.196;5.638;2022-07-23T02:47:06;13.80;99.90
51783;DHT22;37845;53.196;5.638;2022-07-23T02:49:32;13.70;99.90
51783;DHT22;37845;53.196;5.638;2022-07-23T02:51:58;13.70;99.90
51783;DHT22;37845;53.196;5.638;2022-07-23T02:54:23;13.70;99.90
51783;DHT22;37845;53.196;5.638;2022-07-23T02:56:49;13.70;99.90
51783;DHT22;37845;53.196;5.638;2022-07-23T02:59:16;13.70;99.90
51783;DHT22;37845;53.196;5.638;2022-07-23T03:01:42;13.70;99.90
51783;DHT22;37845;53.196;5.638;2022-07-23T03:04:08;13.70;99.90
51783;DHT22;37845;53.196;5.638;2022-07-23T03:06:33;13.70;99.90
51783;DHT22;37845;53.196;5.638;2022-07-23T03:08:59;13.70;99.90
51783;DHT22;37845;53.196;5.638;2022-07-23T03:11:24;13.70;99.90
51783;DHT22;37845;53.196;5.638;2022-07-23T03:13:50;13.70;99.90
51783;DHT22;37845;53.196;5.638;2022-07-23T03:16:16;13.70;99.90
51783;DHT22;37845;53.196;5.638;2022-07-23T03:18:41;13.70;99.90
51783;DHT22;37845;53.196;5.638;2022-07-23T03:21:07;13.70;99.90
51783;DHT22;37845;53.196;5.638;2022-07-23T03:23:33;13.70;99.90
51783;DHT22;37845;53.196;5.638;2022-07-23T03:25:58;13.70;99.90
51783;DHT22;37845;53.196;5.638;2022-07-23T03:28:24;13.70;99.90
51783;DHT22;37845;53.196;5.638;2022-07-23T03:30:49;13.70;99.90
51783;DHT22;37845;53.196;5.638;2022-07-23T03:33:16;13.80;99.90
51783;DHT22;37845;53.196;5.638;2022-07-23T03:35:45;13.70;99.90
51783;DHT22;37845;53.196;5.638;2022-07-23T03:38:10;13.70;99.90
51783;DHT22;37845;53.196;5.638;2022-07-23T03:40:36;13.60;99.90
51783;DHT22;37845;53.196;5.638;2022-07-23T03:43:02;13.70;99.90
51783;DHT22;37845;53.196;5.638;2022-07-23T03:45:28;13.60;99.90
51783;DHT22;37845;53.196;5.638;2022-07-23T03:47:53;13.60;99.90
51783;DHT22;37845;53.196;5.638;2022-07-23T03:50:19;13.60;99.90
51783;DHT22;37845;53.196;5.638;2022-07-23T03:52:45;13.60;99.90
51783;DHT22;37845;53.196;5.638;2022-07-23T03:55:10;13.60;99.90
51783;DHT22;37845;53.196;5.638;2022-07-23T03:57:36;13.60;99.90
51783;DHT22;37845;53.196;5.638;2022-07-23T04:00:03;13.60;99.90
51783;DHT22;37845;53.196;5.638;2022-07-23T04:02:29;13.60;99.90
51783;DHT22;37845;53.196;5.638;2022-07-23T04:04:55;13.60;99.90
51783;DHT22;37845;53.196;5.638;2022-07-23T04:07:21;13.60;99.90
51783;DHT22;37845;53.196;5.638;2022-07-23T04:09:47;13.60;99.90
51783;DHT22;37845;53.196;5.638;2022-07-23T04:12:12;13.60;99.90
51783;DHT22;37845;53.196;5.638;2022-07-23T04:14:38;13.60;99.90
51783;DHT22;37845;53.196;5.638;2022-07-23T04:17:03;13.60;99.90
51783;DHT22;37845;53.196;5.638;2022-07-23T04:19:29;13.60;99.90
51783;DHT22;37845;53.196;5.638;2022-07-23T04:21:56;13.60;99.90
51783;DHT22;37845;53.196;5.638;2022-07-23T04:24:21;13.60;99.90
51783;DHT22;37845;53.196;5.638;2022-07-23T04:26:47;13.60;99.90
51783;DHT22;37845;53.196;5.638;2022-07-23T04:29:13;13.60;99.90
51783;DHT22;37845;53.196;5.638;2022-07-23T04:31:39;13.60;99.90
51783;DHT22;37845;53.196;5.638;2022-07-23T04:34:04;13.50;99.90
51783;DHT22;37845;53.196;5.638;2022-07-23T04:36:30;13.50;99.90
51783;DHT22;37845;53.196;5.638;2022-07-23T04:38:56;13.50;99.90
51783;DHT22;37845;53.196;5.638;2022-07-23T04:41:21;13.60;99.90
51783;DHT22;37845;53.196;5.638;2022-07-23T04:43:47;13.60;99.90
51783;DHT22;37845;53.196;5.638;2022-07-23T04:46:12;13.60;99.90
51783;DHT22;37845;53.196;5.638;2022-07-23T04:48:38;13.70;99.90
51783;DHT22;37845;53.196;5.638;2022-07-23T04:51:04;13.70;99.90
51783;DHT22;37845;53.196;5.638;2022-07-23T04:53:30;13.80;99.90
51783;DHT22;37845;53.196;5.638;2022-07-23T04:55:55;13.80;99.90
51783;DHT22;37845;53.196;5.638;2022-07-23T04:58:21;13.90;99.90
51783;DHT22;37845;53.196;5.638;2022-07-23T05:00:47;13.90;99.90
51783;DHT22;37845;53.196;5.638;2022-07-23T05:03:12;14.00;99.90
51783;DHT22;37845;53.196;5.638;2022-07-23T05:05:38;14.00;99.90
51783;DHT22;37845;53.196;5.638;2022-07-23T05:14:22;14.20;99.90
51783;DHT22;37845;53.196;5.638;2022-07-23T05:16:48;14.20;99.90
51783;DHT22;37845;53.196;5.638;2022-07-23T05:19:14;14.30;99.90
51783;DHT22;37845;53.196;5.638;2022-07-23T05:21:39;14.30;99.90
51783;DHT22;37845;53.196;5.638;2022-07-23T05:24:07;14.50;99.90
51783;DHT22;37845;53.196;5.638;2022-07-23T05:26:35;14.50;99.90
51783;DHT22;37845;53.196;5.638;2022-07-23T05:29:01;14.60;99.90
51783;DHT22;37845;53.196;5.638;2022-07-23T05:31:26;14.60;99.90
51783;DHT22;37845;53.196;5.638;2022-07-23T05:33:52;14.70;99.90
51783;DHT22;37845;53.196;5.638;2022-07-23T05:36:18;14.70;99.90
51783;DHT22;37845;53.196;5.638;2022-07-23T05:38:43;14.80;99.90
51783;DHT22;37845;53.196;5.638;2022-07-23T05:41:09;14.90;99.90
51783;DHT22;37845;53.196;5.638;2022-07-23T05:43:35;14.90;99.90
51783;DHT22;37845;53.196;5.638;2022-07-23T05:46:00;15.00;99.90
51783;DHT22;37845;53.196;5.638;2022-07-23T05:48:26;15.00;99.90
51783;DHT22;37845;53.196;5.638;2022-07-23T05:50:51;15.10;99.90
51783;DHT22;37845;53.196;5.638;2022-07-23T05:53:17;15.20;99.90
51783;DHT22;37845;53.196;5.638;2022-07-23T05:55:43;15.30;99.90
51783;DHT22;37845;53.196;5.638;2022-07-23T05:58:09;15.30;99.90
51783;DHT22;37845;53.196;5.638;2022-07-23T06:00:34;15.40;99.90
51783;DHT22;37845;53.196;5.638;2022-07-23T06:03:00;15.50;99.90
51783;DHT22;37845;53.196;5.638;2022-07-23T06:05:26;15.50;99.90
51783;DHT22;37845;53.196;5.638;2022-07-23T06:07:52;15.50;99.90
51783;DHT22;37845;53.196;5.638;2022-07-23T06:10:18;15.60;99.90
51783;DHT22;37845;53.196;5.638;2022-07-23T06:12:44;15.60;99.90
51783;DHT22;37845;53.196;5.638;2022-07-23T06:15:10;15.70;99.90
51783;DHT22;37845;53.196;5.638;2022-07-23T06:17:36;15.80;99.90
51783;DHT22;37845;53.196;5.638;2022-07-23T06:20:05;15.90;99.90
51783;DHT22;37845;53.196;5.638;2022-07-23T06:22:34;15.90;99.90
51783;DHT22;37845;53.196;5.638;2022-07-23T06:25:00;16.40;99.90
51783;DHT22;37845;53.196;5.638;2022-07-23T06:27:26;16.00;99.90
51783;DHT22;37845;53.196;5.638;2022-07-23T06:29:52;16.10;99.90
51783;DHT22;37845;53.196;5.638;2022-07-23T06:32:17;16.20;99.90
51783;DHT22;37845;53.196;5.638;2022-07-23T06:34:43;16.30;99.90
51783;DHT22;37845;53.196;5.638;2022-07-23T06:37:09;16.40;99.90
51783;DHT22;37845;53.196;5.638;2022-07-23T06:39:40;16.40;99.90
51783;DHT22;37845;53.196;5.638;2022-07-23T06:42:05;16.50;99.90
51783;DHT22;37845;53.196;5.638;2022-07-23T06:44:31;16.50;99.90
51783;DHT22;37845;53.196;5.638;2022-07-23T06:46:57;16.50;99.90
51783;DHT22;37845;53.196;5.638;2022-07-23T06:49:23;16.50;99.90
51783;DHT22;37845;53.196;5.638;2022-07-23T06:51:48;16.50;99.90
51783;DHT22;37845;53.196;5.638;2022-07-23T06:54:14;16.60;99.90
51783;DHT22;37845;53.196;5.638;2022-07-23T06:56:42;16.50;99.90
51783;DHT22;37845;53.196;5.638;2022-07-23T06:59:08;16.50;99.90
51783;DHT22;37845;53.196;5.638;2022-07-23T07:01:34;16.60;99.90
51783;DHT22;37845;53.196;5.638;2022-07-23T07:04:00;16.60;99.90
51783;DHT22;37845;53.196;5.638;2022-07-23T07:06:28;16.60;99.90
51783;DHT22;37845;53.196;5.638;2022-07-23T07:08:59;16.40;99.90
51783;DHT22;37845;53.196;5.638;2022-07-23T07:11:25;16.60;99.90
51783;DHT22;37845;53.196;5.638;2022-07-23T07:13:51;16.70;99.90
51783;DHT22;37845;53.196;5.638;2022-07-23T07:16:19;16.70;99.90
51783;DHT22;37845;53.196;5.638;2022-07-23T07:18:45;16.70;99.90
51783;DHT22;37845;53.196;5.638;2022-07-23T07:21:11;16.70;99.90
51783;DHT22;37845;53.196;5.638;2022-07-23T07:23:37;16.70;99.90
51783;DHT22;37845;53.196;5.638;2022-07-23T07:26:03;16.70;99.90
51783;DHT22;37845;53.196;5.638;2022-07-23T07:28:28;16.80;99.90
51783;DHT22;37845;53.196;5.638;2022-07-23T07:30:54;16.70;99.90
51783;DHT22;37845;53.196;5.638;2022-07-23T07:33:19;16.70;99.90
51783;DHT22;37845;53.196;5.638;2022-07-23T07:35:49;16.70;99.90
51783;DHT22;37845;53.196;5.638;2022-07-23T07:38:14;16.70;99.90
51783;DHT22;37845;53.196;5.638;2022-07-23T07:40:43;16.70;99.90
51783;DHT22;37845;53.196;5.638;2022-07-23T07:43:09;16.70;99.90
51783;DHT22;37845;53.196;5.638;2022-07-23T07:45:37;16.70;99.90
51783;DHT22;37845;53.196;5.638;2022-07-23T07:48:03;16.70;99.90
51783;DHT22;37845;53.196;5.638;2022-07-23T07:50:28;16.60;99.90
51783;DHT22;37845;53.196;5.638;2022-07-23T07:52:54;16.60;99.90
51783;DHT22;37845;53.196;5.638;2022-07-23T07:55:20;16.70;99.90
51783;DHT22;37845;53.196;5.638;2022-07-23T07:57:45;16.60;99.90
51783;DHT22;37845;53.196;5.638;2022-07-23T08:00:11;16.60;99.90
51783;DHT22;37845;53.196;5.638;2022-07-23T08:02:47;16.60;99.90
51783;DHT22;37845;53.196;5.638;2022-07-23T08:05:13;16.60;99.90
51783;DHT22;37845;53.196;5.638;2022-07-23T08:07:39;16.60;99.90
51783;DHT22;37845;53.196;5.638;2022-07-23T08:10:06;16.60;99.90
51783;DHT22;37845;53.196;5.638;2022-07-23T08:12:39;16.60;99.90
51783;DHT22;37845;53.196;5.638;2022-07-23T08:15:05;16.60;99.90
51783;DHT22;37845;53.196;5.638;2022-07-23T08:17:31;16.60;99.90
51783;DHT22;37845;53.196;5.638;2022-07-23T08:19:57;16.70;99.90
51783;DHT22;37845;53.196;5.638;2022-07-23T08:22:23;16.70;99.90
51783;DHT22;37845;53.196;5.638;2022-07-23T08:24:48;16.80;99.90
51783;DHT22;37845;53.196;5.638;2022-07-23T08:27:14;16.80;99.90
51783;DHT22;37845;53.196;5.638;2022-07-23T08:29:40;16.80;99.90
51783;DHT22;37845;53.196;5.638;2022-07-23T08:32:05;16.90;99.90
51783;DHT22;37845;53.196;5.638;2022-07-23T08:34:31;16.90;99.90
51783;DHT22;37845;53.196;5.638;2022-07-23T08:36:57;16.90;99.90
51783;DHT22;37845;53.196;5.638;2022-07-23T08:39:25;16.90;99.90
51783;DHT22;37845;53.196;5.638;2022-07-23T08:41:51;17.00;99.90
51783;DHT22;37845;53.196;5.638;2022-07-23T08:44:16;17.00;99.90
51783;DHT22;37845;53.196;5.638;2022-07-23T08:46:43;17.00;99.90
51783;DHT22;37845;53.196;5.638;2022-07-23T08:49:09;17.10;99.90
51783;DHT22;37845;53.196;5.638;2022-07-23T08:51:35;17.10;99.90
51783;DHT22;37845;53.196;5.638;2022-07-23T08:54:01;17.20;99.90
51783;DHT22;37845;53.196;5.638;2022-07-23T08:56:26;17.20;99.90
51783;DHT22;37845;53.196;5.638;2022-07-23T08:58:53;17.30;99.90
51783;DHT22;37845;53.196;5.638;2022-07-23T09:01:19;17.50;99.90
51783;DHT22;37845;53.196;5.638;2022-07-23T09:03:44;17.70;99.90
51783;DHT22;37845;53.196;5.638;2022-07-23T09:06:10;17.70;99.90
51783;DHT22;37845;53.196;5.638;2022-07-23T09:11:02;17.70;99.90
51783;DHT22;37845;53.196;5.638;2022-07-23T09:13:41;17.70;99.90
51783;DHT22;37845;53.196;5.638;2022-07-23T09:16:12;17.70;99.90
51783;DHT22;37845;53.196;5.638;2022-07-23T09:21:11;17.70;99.90
51783;DHT22;37845;53.196;5.638;2022-07-23T09:23:44;17.70;99.90
51783;DHT22;37845;53.196;5.638;2022-07-23T09:26:21;17.80;99.90
51783;DHT22;37845;53.196;5.638;2022-07-23T09:28:55;17.90;99.90
51783;DHT22;37845;53.196;5.638;2022-07-23T09:31:53;17.90;99.90
51783;DHT22;37845;53.196;5.638;2022-07-23T09:34:28;18.00;99.90
51783;DHT22;37845;53.196;5.638;2022-07-23T09:36:57;18.10;99.90
51783;DHT22;37845;53.196;5.638;2022-07-23T09:39:29;17.90;99.90
51783;DHT22;37845;53.196;5.638;2022-07-23T09:41:56;18.00;99.90
51783;DHT22;37845;53.196;5.638;2022-07-23T09:44:22;18.00;99.90
51783;DHT22;37845;53.196;5.638;2022-07-23T09:46:48;18.10;99.90
51783;DHT22;37845;53.196;5.638;2022-07-23T09:49:19;18.20;99.90
51783;DHT22;37845;53.196;5.638;2022-07-23T09:51:55;18.30;99.90
51783;DHT22;37845;53.196;5.638;2022-07-23T09:56:48;18.40;99.90
51783;DHT22;37845;53.196;5.638;2022-07-23T09:59:16;18.50;99.90
51783;DHT22;37845;53.196;5.638;2022-07-23T10:01:45;18.60;99.90
51783;DHT22;37845;53.196;5.638;2022-07-23T10:04:11;18.60;99.90
51783;DHT22;37845;53.196;5.638;2022-07-23T10:06:38;18.50;99.90
51783;DHT22;37845;53.196;5.638;2022-07-23T10:09:04;18.40;99.90
51783;DHT22;37845;53.196;5.638;2022-07-23T10:11:30;18.60;99.90
51783;DHT22;37845;53.196;5.638;2022-07-23T10:13:57;18.70;99.90
51783;DHT22;37845;53.196;5.638;2022-07-23T10:16:32;18.70;99.90
51783;DHT22;37845;53.196;5.638;2022-07-23T10:18:58;18.80;99.90
51783;DHT22;37845;53.196;5.638;2022-07-23T10:21:45;18.70;99.90
51783;DHT22;37845;53.196;5.638;2022-07-23T10:31:52;19.00;99.90
51783;DHT22;37845;53.196;5.638;2022-07-23T10:39:24;19.40;99.90
51783;DHT22;37845;53.196;5.638;2022-07-23T10:41:52;19.40;99.90
51783;DHT22;37845;53.196;5.638;2022-07-23T10:44:37;19.50;99.90
51783;DHT22;37845;53.196;5.638;2022-07-23T10:47:03;19.50;99.90
51783;DHT22;37845;53.196;5.638;2022-07-23T10:49:44;19.40;99.90
51783;DHT22;37845;53.196;5.638;2022-07-23T10:54:42;19.50;99.90
51783;DHT22;37845;53.196;5.638;2022-07-23T10:57:09;19.40;99.90
51783;DHT22;37845;53.196;5.638;2022-07-23T11:02:22;19.70;99.90
51783;DHT22;37845;53.196;5.638;2022-07-23T11:04:49;19.80;99.90
51783;DHT22;37845;53.196;5.638;2022-07-23T11:07:15;19.80;99.90
51783;DHT22;37845;53.196;5.638;2022-07-23T11:09:42;19.70;99.90
51783;DHT22;37845;53.196;5.638;2022-07-23T11:17:25;19.80;99.90
51783;DHT22;37845;53.196;5.638;2022-07-23T11:27:48;20.10;99.90
51783;DHT22;37845;53.196;5.638;2022-07-23T11:32:53;20.20;99.90
51783;DHT22;37845;53.196;5.638;2022-07-23T11:35:23;20.30;99.90
51783;DHT22;37845;53.196;5.638;2022-07-23T11:37:49;20.30;99.90
51783;DHT22;37845;53.196;5.638;2022-07-23T11:40:19;20.10;99.90
51783;DHT22;37845;53.196;5.638;2022-07-23T11:43:02;20.20;99.90
51783;DHT22;37845;53.196;5.638;2022-07-23T11:45:32;20.30;99.90
51783;DHT22;37845;53.196;5.638;2022-07-23T11:47:59;20.30;99.90
51783;DHT22;37845;53.196;5.638;2022-07-23T11:50:24;20.30;99.90
51783;DHT22;37845;53.196;5.638;2022-07-23T11:52:54;20.20;99.90
51783;DHT22;37845;53.196;5.638;2022-07-23T11:55:20;20.10;99.90
51783;DHT22;37845;53.196;5.638;2022-07-23T11:57:46;20.00;99.90
51783;DHT22;37845;53.196;5.638;2022-07-23T12:00:13;20.10;99.90
51783;DHT22;37845;53.196;5.638;2022-07-23T12:02:40;20.10;99.90
51783;DHT22;37845;53.196;5.638;2022-07-23T12:05:06;20.00;99.90
51783;DHT22;37845;53.196;5.638;2022-07-23T12:07:35;20.20;99.90
51783;DHT22;37845;53.196;5.638;2022-07-23T12:12:38;20.40;99.90
51783;DHT22;37845;53.196;5.638;2022-07-23T12:15:04;20.40;99.90
51783;DHT22;37845;53.196;5.638;2022-07-23T12:17:31;20.40;99.90
51783;DHT22;37845;53.196;5.638;2022-07-23T12:19:58;20.40;99.90
51783;DHT22;37845;53.196;5.638;2022-07-23T12:22:24;20.60;99.90
51783;DHT22;37845;53.196;5.638;2022-07-23T12:27:22;20.70;99.90
51783;DHT22;37845;53.196;5.638;2022-07-23T12:29:48;20.60;99.90
51783;DHT22;37845;53.196;5.638;2022-07-23T12:32:17;20.60;99.90
51783;DHT22;37845;53.196;5.638;2022-07-23T12:34:43;20.50;99.90
51783;DHT22;37845;53.196;5.638;2022-07-23T12:37:24;20.50;99.90
51783;DHT22;37845;53.196;5.638;2022-07-23T12:39:50;20.70;99.90
51783;DHT22;37845;53.196;5.638;2022-07-23T12:42:16;20.80;99.90
51783;DHT22;37845;53.196;5.638;2022-07-23T12:45:02;20.90;99.90
51783;DHT22;37845;53.196;5.638;2022-07-23T12:47:28;20.90;99.90
51783;DHT22;37845;53.196;5.638;2022-07-23T12:49:55;21.10;99.90
51783;DHT22;37845;53.196;5.638;2022-07-23T12:52:21;21.10;99.90
51783;DHT22;37845;53.196;5.638;2022-07-23T12:54:46;21.00;99.90
51783;DHT22;37845;53.196;5.638;2022-07-23T12:57:18;21.10;99.90
51783;DHT22;37845;53.196;5.638;2022-07-23T12:59:43;21.00;99.90
51783;DHT22;37845;53.196;5.638;2022-07-23T13:02:09;21.00;99.90
51783;DHT22;37845;53.196;5.638;2022-07-23T13:04:35;21.00;99.90
51783;DHT22;37845;53.196;5.638;2022-07-23T13:07:00;21.20;99.90
51783;DHT22;37845;53.196;5.638;2022-07-23T13:09:28;21.20;99.90
51783;DHT22;37845;53.196;5.638;2022-07-23T13:11:54;21.30;99.90
51783;DHT22;37845;53.196;5.638;2022-07-23T13:14:20;21.40;99.90
51783;DHT22;37845;53.196;5.638;2022-07-23T13:16:52;21.40;99.90
51783;DHT22;37845;53.196;5.638;2022-07-23T13:19:18;21.50;99.90
51783;DHT22;37845;53.196;5.638;2022-07-23T13:21:44;21.70;99.90
51783;DHT22;37845;53.196;5.638;2022-07-23T13:24:10;21.90;99.90
51783;DHT22;37845;53.196;5.638;2022-07-23T13:26:36;21.90;99.90
51783;DHT22;37845;53.196;5.638;2022-07-23T13:29:10;21.90;99.90
51783;DHT22;37845;53.196;5.638;2022-07-23T13:31:37;22.00;99.90
51783;DHT22;37845;53.196;5.638;2022-07-23T13:34:03;22.00;99.90
51783;DHT22;37845;53.196;5.638;2022-07-23T13:36:28;22.10;99.90
51783;DHT22;37845;53.196;5.638;2022-07-23T13:38:54;22.20;99.90
51783;DHT22;37845;53.196;5.638;2022-07-23T13:41:20;22.10;99.90
51783;DHT22;37845;53.196;5.638;2022-07-23T13:43:45;22.10;99.90
51783;DHT22;37845;53.196;5.638;2022-07-23T13:46:11;22.20;99.90
51783;DHT22;37845;53.196;5.638;2022-07-23T13:48:37;22.30;99.90
51783;DHT22;37845;53.196;5.638;2022-07-23T13:51:03;22.10;99.90
51783;DHT22;37845;53.196;5.638;2022-07-23T13:53:28;22.00;99.90
51783;DHT22;37845;53.196;5.638;2022-07-23T13:55:54;22.10;99.90
51783;DHT22;37845;53.196;5.638;2022-07-23T13:58:20;21.90;99.90
51783;DHT22;37845;53.196;5.638;2022-07-23T14:00:47;21.90;99.90
51783;DHT22;37845;53.196;5.638;2022-07-23T14:03:13;22.00;99.90
51783;DHT22;37845;53.196;5.638;2022-07-23T14:05:39;22.00;99.90
51783;DHT22;37845;53.196;5.638;2022-07-23T14:08:04;22.10;99.90
51783;DHT22;37845;53.196;5.638;2022-07-23T14:10:33;22.20;99.90
51783;DHT22;37845;53.196;5.638;2022-07-23T14:12:58;22.30;99.90
51783;DHT22;37845;53.196;5.638;2022-07-23T14:15:28;22.50;99.90
51783;DHT22;37845;53.196;5.638;2022-07-23T14:17:55;22.60;99.90
51783;DHT22;37845;53.196;5.638;2022-07-23T14:20:21;22.50;99.90
51783;DHT22;37845;53.196;5.638;2022-07-23T14:22:46;22.60;99.90
51783;DHT22;37845;53.196;5.638;2022-07-23T14:25:12;22.50;99.90
51783;DHT22;37845;53.196;5.638;2022-07-23T14:27:41;22.40;99.90
51783;DHT22;37845;53.196;5.638;2022-07-23T14:30:07;22.40;99.90
51783;DHT22;37845;53.196;5.638;2022-07-23T14:32:33;22.50;99.90
51783;DHT22;37845;53.196;5.638;2022-07-23T14:34:58;22.60;99.90
51783;DHT22;37845;53.196;5.638;2022-07-23T14:37:24;22.50;99.90
51783;DHT22;37845;53.196;5.638;2022-07-23T14:39:50;22.80;99.90
51783;DHT22;37845;53.196;5.638;2022-07-23T14:42:16;22.70;99.90
51783;DHT22;37845;53.196;5.638;2022-07-23T14:44:41;22.80;99.90
51783;DHT22;37845;53.196;5.638;2022-07-23T14:47:07;22.80;99.90
51783;DHT22;37845;53.196;5.638;2022-07-23T14:49:33;23.00;99.90
51783;DHT22;37845;53.196;5.638;2022-07-23T14:51:59;23.00;99.90
51783;DHT22;37845;53.196;5.638;2022-07-23T14:54:25;23.10;99.90
51783;DHT22;37845;53.196;5.638;2022-07-23T14:56:54;23.00;99.90
51783;DHT22;37845;53.196;5.638;2022-07-23T14:59:21;23.20;99.90
51783;DHT22;37845;53.196;5.638;2022-07-23T15:01:47;23.30;99.90
51783;DHT22;37845;53.196;5.638;2022-07-23T15:04:12;23.30;99.90
51783;DHT22;37845;53.196;5.638;2022-07-23T15:06:38;23.30;99.90
51783;DHT22;37845;53.196;5.638;2022-07-23T15:09:04;23.40;99.90
51783;DHT22;37845;53.196;5.638;2022-07-23T15:11:30;23.30;99.90
51783;DHT22;37845;53.196;5.638;2022-07-23T15:13:59;23.50;99.90
51783;DHT22;37845;53.196;5.638;2022-07-23T15:16:25;23.50;99.90
51783;DHT22;37845;53.196;5.638;2022-07-23T15:18:51;23.40;99.90
51783;DHT22;37845;53.196;5.638;2022-07-23T15:21:16;23.30;99.90
51783;DHT22;37845;53.196;5.638;2022-07-23T15:23:42;23.50;99.90
51783;DHT22;37845;53.196;5.638;2022-07-23T15:26:08;23.60;99.90
51783;DHT22;37845;53.196;5.638;2022-07-23T15:28:34;23.80;99.90
51783;DHT22;37845;53.196;5.638;2022-07-23T15:31:00;23.60;99.90
51783;DHT22;37845;53.196;5.638;2022-07-23T15:33:26;23.80;99.90
51783;DHT22;37845;53.196;5.638;2022-07-23T15:35:52;23.80;99.90
51783;DHT22;37845;53.196;5.638;2022-07-23T15:38:21;24.00;99.90
51783;DHT22;37845;53.196;5.638;2022-07-23T15:40:47;24.10;99.90
51783;DHT22;37845;53.196;5.638;2022-07-23T15:43:13;24.20;99.90
51783;DHT22;37845;53.196;5.638;2022-07-23T15:45:39;24.20;99.90
51783;DHT22;37845;53.196;5.638;2022-07-23T15:48:05;24.30;99.90
51783;DHT22;37845;53.196;5.638;2022-07-23T15:50:31;24.30;99.20
51783;DHT22;37845;53.196;5.638;2022-07-23T15:52:56;24.20;99.50
51783;DHT22;37845;53.196;5.638;2022-07-23T15:55:22;24.30;98.80
51783;DHT22;37845;53.196;5.638;2022-07-23T15:57:48;24.30;98.20
51783;DHT22;37845;53.196;5.638;2022-07-23T16:00:14;24.30;97.90
51783;DHT22;37845;53.196;5.638;2022-07-23T16:02:39;24.40;97.00
51783;DHT22;37845;53.196;5.638;2022-07-23T16:05:05;24.20;97.50
51783;DHT22;37845;53.196;5.638;2022-07-23T16:07:31;24.30;97.00
51783;DHT22;37845;53.196;5.638;2022-07-23T16:09:59;24.40;96.70
51783;DHT22;37845;53.196;5.638;2022-07-23T16:12:25;24.30;97.20
51783;DHT22;37845;53.196;5.638;2022-07-23T16:14:50;24.30;96.60
51783;DHT22;37845;53.196;5.638;2022-07-23T16:17:16;24.30;96.70
51783;DHT22;37845;53.196;5.638;2022-07-23T16:19:42;24.30;96.90